Time;durP1;ratioP1;P1;durP2;ratioP2;P2;SDS_P1;SDS_P2;PMS_P1;PMS_P2;Temp;Humidity;BMP_temperature;BMP_pressure;BME280_temperature;BME280_humidity;BME280_pressure;Samples;Min_cycle;Max_cycle;Signal;HPM_P1;HPM_P2
2022/03/12 00:02:00;;;;;;;12.93;7.07;;;10.60;42.80;;;9.43;34.29;100416.16;4989381;28;20051;-88
2022/03/12 00:04:30;;;;;;;13.90;6.68;;;10.60;42.80;;;9.44;34.50;100429.53;4989161;28;20121;-88
2022/03/12 00:06:58;;;;;;;13.82;7.93;;;10.60;43.20;;;9.44;34.10;100417.84;4990245;28;20093;-89
2022/03/12 00:09:26;;;;;;;14.73;7.30;;;10.60;43.10;;;9.43;34.19;100408.03;4990223;28;20050;-89
2022/03/12 00:11:56;;;;;;;13.77;7.43;;;10.60;42.70;;;9.46;34.15;100421.22;4990137;28;20038;-89
2022/03/12 00:14:24;;;;;;;13.85;7.32;;;10.60;42.40;;;9.44;34.47;100410.53;4989712;28;20042;-88
2022/03/12 00:16:56;;;;;;;12.73;6.72;;;10.60;43.50;;;9.46;34.88;100404.94;4984860;28;20042;-88
2022/03/12 00:19:23;;;;;;;15.25;6.80;;;10.60;43.20;;;9.46;33.90;100410.34;4983114;28;20070;-89
2022/03/12 00:21:52;;;;;;;14.13;7.30;;;10.60;42.70;;;9.46;34.44;100413.94;4989826;28;20065;-88
2022/03/12 00:24:21;;;;;;;14.43;7.25;;;10.60;42.70;;;9.49;34.49;100423.59;4989547;28;20053;-89
2022/03/12 00:26:50;;;;;;;11.70;6.85;;;10.70;42.30;;;9.48;34.75;100419.16;4989894;28;20047;-88
2022/03/12 00:29:20;;;;;;;13.23;7.32;;;10.70;42.40;;;9.47;34.21;100422.94;4989470;28;20070;-89
2022/03/12 00:31:50;;;;;;;14.57;7.20;;;10.70;42.20;;;9.47;34.12;100423.75;4989477;28;20093;-89
2022/03/12 00:34:18;;;;;;;10.50;6.72;;;10.70;42.60;;;9.47;34.47;100425.66;4989959;28;20046;-88
2022/03/12 00:36:48;;;;;;;11.73;6.93;;;10.70;42.10;;;9.48;34.49;100424.59;4986084;28;20034;-89
2022/03/12 00:39:18;;;;;;;11.75;6.97;;;10.70;42.70;;;9.47;35.05;100439.22;4985119;28;20043;-89
2022/03/12 00:41:45;;;;;;;14.95;6.88;;;10.70;43.00;;;9.48;34.80;100425.47;4985940;28;20054;-88
2022/03/12 00:44:17;;;;;;;13.43;7.35;;;10.70;42.40;;;9.49;34.72;100426.31;4987224;28;20034;-88
2022/03/12 00:46:44;;;;;;;10.30;6.63;;;10.70;42.30;;;9.48;34.58;100435.47;4985386;28;20062;-89
2022/03/12 00:49:11;;;;;;;12.93;7.50;;;10.70;42.80;;;9.45;34.60;100427.69;4988137;28;20037;-88
2022/03/12 00:51:39;;;;;;;12.60;6.70;;;10.70;43.20;;;9.46;34.82;100432.09;4988001;28;20536;-88
2022/03/12 00:54:07;;;;;;;10.32;6.70;;;10.70;43.50;;;9.44;34.75;100434.13;4987671;28;20054;-88
2022/03/12 00:56:39;;;;;;;14.73;7.10;;;10.70;42.60;;;9.41;34.34;100429.94;4986703;28;20034;-89
2022/03/12 00:59:08;;;;;;;12.10;7.40;;;10.70;43.20;;;9.43;34.90;100440.63;4988241;28;20121;-89
2022/03/12 01:01:35;;;;;;;13.93;7.10;;;10.70;43.30;;;9.42;34.74;100428.03;4987190;28;20068;-88
2022/03/12 01:04:03;;;;;;;11.77;7.20;;;10.60;43.50;;;9.39;34.88;100432.81;4996140;28;20060;-89
2022/03/12 01:06:30;;;;;;;17.38;7.45;;;10.60;43.40;;;9.38;35.13;100433.81;4985906;28;20042;-88
2022/03/12 01:08:58;;;;;;;13.82;7.05;;;10.60;43.80;;;9.39;35.23;100427.38;4988288;28;20493;-88
2022/03/12 01:11:25;;;;;;;14.85;7.28;;;10.60;43.60;;;9.39;35.54;100438.25;4987162;28;20120;-89
2022/03/12 01:13:53;;;;;;;14.45;7.50;;;10.60;43.10;;;9.37;35.21;100432.16;4986320;28;20053;-88
2022/03/12 01:16:22;;;;;;;12.95;7.00;;;10.60;44.00;;;9.37;34.83;100434.88;4988187;28;20042;-88
2022/03/12 01:18:49;;;;;;;15.00;7.50;;;10.60;43.20;;;9.38;34.83;100452.00;4991709;28;20150;-88
2022/03/12 01:21:20;;;;;;;14.15;7.20;;;10.60;43.10;;;9.36;35.20;100437.75;4990075;28;20125;-88
2022/03/12 01:23:49;;;;;;;12.70;7.03;;;10.60;43.50;;;9.37;35.99;100434.88;4990273;28;20050;-87
2022/03/12 01:26:20;;;;;;;12.60;7.32;;;10.50;43.70;;;9.37;35.68;100439.47;4990136;28;20128;-89
2022/03/12 01:28:48;;;;;;;12.60;6.97;;;10.60;44.10;;;9.34;35.72;100440.66;4989967;28;20105;-88
2022/03/12 01:31:17;;;;;;;11.90;7.35;;;10.50;44.20;;;9.32;36.16;100439.97;4987347;28;20047;-88
2022/03/12 01:33:45;;;;;;;14.27;7.07;;;10.50;44.40;;;9.32;35.72;100441.84;4989100;28;20073;-89
2022/03/12 01:36:13;;;;;;;13.88;7.97;;;10.50;44.40;;;9.29;35.67;100439.47;4990296;28;20034;-88
2022/03/12 01:38:48;;;;;;;13.20;7.68;;;10.50;44.20;;;9.29;36.17;100443.06;4992541;28;20052;-89
2022/03/12 01:41:20;;;;;;;13.50;7.97;;;10.50;44.70;;;9.25;36.13;100444.41;4992700;28;20100;-88
2022/03/12 01:43:49;;;;;;;15.40;7.72;;;10.50;44.80;;;9.26;36.52;100443.41;4992193;28;20524;-89
2022/03/12 01:46:20;;;;;;;13.18;7.75;;;10.50;44.90;;;9.24;35.33;100440.03;4992796;28;20141;-88
2022/03/12 01:48:52;;;;;;;12.10;7.32;;;10.40;44.30;;;9.24;35.65;100440.03;4992737;28;20052;-88
2022/03/12 01:51:20;;;;;;;12.98;7.60;;;10.50;44.60;;;9.24;36.73;100440.03;4991563;28;20068;-88
2022/03/12 01:53:47;;;;;;;18.20;8.23;;;10.50;44.70;;;9.23;35.60;100437.50;4981393;28;20065;-89
2022/03/12 01:56:16;;;;;;;12.57;7.28;;;10.50;45.30;;;9.22;35.83;100442.09;4988908;28;20042;-88
2022/03/12 01:58:48;;;;;;;13.45;7.72;;;10.40;44.40;;;9.24;36.11;100444.63;4992800;28;20124;-89
2022/03/12 02:01:19;;;;;;;14.43;7.90;;;10.40;44.90;;;9.23;36.33;100437.50;4992055;28;20046;-89
2022/03/12 02:03:47;;;;;;;16.65;7.78;;;10.50;44.60;;;9.26;35.92;100448.84;4991904;28;20130;-90
2022/03/12 02:06:22;;;;;;;16.60;8.13;;;10.60;45.10;;;9.25;36.59;100447.13;4991422;28;20497;-88
2022/03/12 02:08:49;;;;;;;13.60;7.97;;;10.40;45.30;;;9.25;35.94;100444.41;4983845;28;20644;-89
2022/03/12 02:11:21;;;;;;;14.15;7.63;;;10.50;45.30;;;9.22;36.96;100442.09;4987965;28;20049;-89
2022/03/12 02:13:48;;;;;;;13.15;7.40;;;10.40;45.90;;;9.21;37.42;100445.81;4988452;28;20038;-88
2022/03/12 02:16:18;;;;;;;11.20;7.35;;;10.40;45.80;;;9.21;36.86;100451.25;4989161;28;20133;-88
2022/03/12 02:18:48;;;;;;;13.93;7.85;;;10.40;46.00;;;9.21;36.62;100451.25;4990337;28;20085;-90
2022/03/12 02:21:16;;;;;;;20.45;7.90;;;10.40;45.60;;;9.20;37.42;100449.56;4987248;28;20404;-89
2022/03/12 02:23:48;;;;;;;13.88;7.78;;;10.40;46.20;;;9.20;36.90;100449.56;4990514;28;20043;-89
2022/03/12 02:26:15;;;;;;;11.90;7.63;;;10.40;45.50;;;9.20;37.05;100460.41;4988080;28;20034;-89
2022/03/12 02:28:43;;;;;;;12.45;7.68;;;10.40;46.40;;;9.22;37.24;100460.25;4988896;28;20041;-89
2022/03/12 02:31:13;;;;;;;11.20;7.30;;;10.40;46.60;;;9.21;37.18;100451.25;4989851;28;20051;-88
2022/03/12 02:33:40;;;;;;;18.05;8.50;;;10.40;45.90;;;9.22;37.63;100452.94;4989497;28;20096;-89
2022/03/12 02:36:12;;;;;;;13.75;8.10;;;10.40;46.40;;;9.24;37.59;100461.75;4989975;28;20047;-89
2022/03/12 02:38:41;;;;;;;16.40;8.32;;;10.40;46.60;;;9.24;37.58;100456.31;4989977;28;20522;-89
2022/03/12 02:41:11;;;;;;;11.70;7.88;;;10.40;46.70;;;9.24;37.58;100461.75;4989554;28;20038;-89
2022/03/12 02:43:44;;;;;;;13.35;8.15;;;10.40;46.90;;;9.21;37.82;100453.94;4989801;28;20053;-88
2022/03/12 02:46:13;;;;;;;16.30;8.20;;;10.40;47.10;;;9.23;37.90;100465.47;4990829;28;20495;-89
2022/03/12 02:48:40;;;;;;;14.57;8.40;;;10.50;46.90;;;9.24;38.19;100464.47;4991218;28;20122;-88
2022/03/12 02:51:07;;;;;;;14.43;8.15;;;10.40;47.00;;;9.23;37.68;100470.91;4990955;28;20129;-89
2022/03/12 02:53:35;;;;;;;14.35;8.38;;;10.40;47.20;;;9.25;38.20;100474.28;4991103;28;20073;-88
2022/03/12 02:56:02;;;;;;;13.50;7.38;;;10.40;47.10;;;9.22;38.56;100462.97;4990733;28;20050;-88
2022/03/12 02:58:31;;;;;;;15.40;8.10;;;10.40;47.30;;;9.19;38.41;100473.16;4989583;28;20460;-89
2022/03/12 03:00:58;;;;;;;14.32;8.75;;;10.40;47.70;;;9.23;38.23;100464.66;4990690;28;20054;-88
2022/03/12 03:03:25;;;;;;;13.60;8.27;;;10.40;47.20;;;9.21;38.37;100467.53;4980891;28;20092;-89
2022/03/12 03:05:54;;;;;;;17.13;7.85;;;10.40;47.40;;;9.22;39.00;100465.69;4989433;28;20412;-88
2022/03/12 03:08:23;;;;;;;13.70;7.88;;;10.40;47.80;;;9.23;38.64;100479.06;4990348;28;20046;-88
2022/03/12 03:10:52;;;;;;;13.10;7.95;;;10.40;48.00;;;9.21;38.86;100472.97;4990396;28;20038;-88
2022/03/12 03:13:36;;;;;;;17.85;8.23;;;10.40;47.80;;;9.20;39.04;100476.72;4990871;28;20031;-89
2022/03/12 03:16:08;;;;;;;14.50;7.72;;;10.40;48.20;;;9.21;39.17;100489.25;4990663;28;20039;-88
2022/03/12 03:18:40;;;;;;;14.63;8.27;;;10.40;48.10;;;9.15;39.00;100479.09;4989395;28;20038;-89
2022/03/12 03:21:13;;;;;;;15.82;8.63;;;10.30;48.10;;;9.12;38.67;100484.88;4990446;28;20108;-88
2022/03/12 03:23:44;;;;;;;15.45;8.20;;;10.30;48.90;;;9.09;39.65;100479.81;4986957;28;20165;-88
2022/03/12 03:26:12;;;;;;;;;;;10.30;48.50;;;9.07;39.30;100481.88;4990845;28;20057;-88
2022/03/12 03:28:41;;;;;;;15.00;8.27;;;10.30;49.00;;;9.06;38.84;100494.56;4990486;28;19992;-88
2022/03/12 03:31:09;;;;;;;15.07;8.88;;;10.30;48.50;;;9.04;39.84;100487.63;4989250;28;20146;-88
2022/03/12 03:33:36;;;;;;;16.92;8.32;;;10.30;49.10;;;8.99;39.71;100490.88;4990122;28;20085;-89
2022/03/12 03:36:04;;;;;;;13.52;8.32;;;10.20;49.50;;;8.95;39.97;100495.81;5005703;28;20049;-88
2022/03/12 03:38:31;;;;;;;14.85;8.48;;;10.20;49.30;;;8.91;40.14;100499.03;4990221;28;20046;-88
2022/03/12 03:40:59;;;;;;;19.95;8.00;;;10.30;49.80;;;8.88;40.47;100500.22;4988020;28;20108;-88
2022/03/12 03:43:26;;;;;;;14.45;8.15;;;10.20;50.10;;;8.90;40.80;100500.06;4990109;28;20074;-89
2022/03/12 03:45:57;;;;;;;16.30;8.35;;;10.10;50.20;;;8.89;40.11;100501.94;4973989;28;20043;-88
2022/03/12 03:48:25;;;;;;;16.02;8.55;;;10.20;49.70;;;8.87;41.07;100503.13;4990064;28;20057;-89
2022/03/12 03:50:54;;;;;;;14.63;8.13;;;10.10;50.40;;;8.85;40.67;100508.72;4989676;28;20042;-88
2022/03/12 03:53:25;;;;;;;14.63;8.00;;;10.10;50.60;;;8.87;40.65;100511.25;4989970;28;20169;-89
2022/03/12 03:56:00;;;;;;;13.77;8.48;;;10.10;49.90;;;8.89;41.02;100515.50;4987515;28;20050;-89
2022/03/12 03:58:28;;;;;;;15.57;8.02;;;10.10;50.40;;;8.88;40.74;100521.94;4985460;28;20875;-88
2022/03/12 04:01:00;;;;;;;15.32;7.97;;;10.10;50.20;;;8.84;40.50;100527.91;4982301;28;20149;-87
2022/03/12 04:03:32;;;;;;;15.07;7.97;;;10.10;50.10;;;8.81;41.05;100537.22;4980376;28;20464;-88
2022/03/12 04:06:01;;;;;;;14.27;8.45;;;10.10;50.40;;;8.78;40.82;100533.00;4973981;28;20097;-88
2022/03/12 04:08:29;;;;;;;16.33;8.20;;;10.10;50.70;;;8.79;41.33;100539.25;4989700;28;20042;-88
2022/03/12 04:10:56;;;;;;;13.52;8.15;;;10.10;51.00;;;8.81;40.97;100545.38;4980439;28;20074;-89
2022/03/12 04:13:25;;;;;;;16.02;8.20;;;10.10;50.90;;;8.81;41.85;100542.66;4988488;28;20066;-88
2022/03/12 04:15:54;;;;;;;13.40;7.30;;;10.00;51.30;;;8.85;41.47;100546.72;4990113;28;20046;-88
2022/03/12 04:18:22;;;;;;;13.68;8.02;;;10.10;51.10;;;8.86;41.97;100543.00;4987936;28;20046;-88
2022/03/12 04:20:51;;;;;;;12.63;8.23;;;10.10;51.50;;;8.87;41.58;100549.25;4980986;28;20565;-88
2022/03/12 04:23:21;;;;;;;14.18;8.32;;;10.10;51.30;;;8.88;41.95;100549.09;4974767;28;20053;-88
2022/03/12 04:25:51;;;;;;;14.13;8.30;;;10.10;51.20;;;8.86;41.37;100550.28;4986536;28;20042;-88
2022/03/12 04:28:19;;;;;;;15.02;8.40;;;10.10;51.50;;;8.85;41.32;100548.56;4989138;28;20574;-88
2022/03/12 04:30:46;;;;;;;16.95;8.02;;;10.10;51.40;;;8.85;41.90;100549.41;4988465;28;20053;-89
2022/03/12 04:33:15;;;;;;;12.65;7.97;;;10.10;51.50;;;8.88;41.57;100554.50;4977808;28;20038;-87
2022/03/12 04:35:44;;;;;;;15.45;8.63;;;10.10;51.40;;;8.87;42.22;100552.84;4979585;28;20213;-88
2022/03/12 04:38:12;;;;;;;15.27;8.10;;;10.10;51.80;;;8.86;41.93;100551.13;4985432;28;20034;-88
2022/03/12 04:40:41;;;;;;;14.43;8.40;;;10.10;51.80;;;8.93;41.79;100563.00;4986272;28;20070;-88
2022/03/12 04:43:12;;;;;;;17.15;8.57;;;10.10;51.70;;;8.94;42.18;100567.38;4989776;28;20050;-89
2022/03/12 04:45:43;;;;;;;14.20;8.13;;;10.10;52.10;;;8.94;42.34;100571.97;4989338;28;20058;-88
2022/03/12 04:48:15;;;;;;;12.82;8.05;;;10.10;52.00;;;8.89;42.74;100572.50;4989503;28;20400;-88
2022/03/12 04:50:44;;;;;;;15.77;8.13;;;10.20;52.50;;;8.89;42.92;100575.22;4989415;28;20052;-88
2022/03/12 04:53:12;;;;;;;14.48;8.45;;;10.00;52.50;;;8.89;42.91;100580.66;4993470;28;20151;-88
2022/03/12 04:55:41;;;;;;;14.55;8.00;;;10.10;51.90;;;8.92;43.08;100569.44;4993533;28;20054;-88
2022/03/12 04:58:09;;;;;;;14.60;8.00;;;10.10;52.10;;;8.91;43.47;100573.19;4985464;28;20557;-88
2022/03/12 05:00:39;;;;;;;14.82;7.28;;;10.10;52.00;;;8.93;43.42;100573.84;4988489;28;20113;-88
2022/03/12 05:03:09;;;;;;;13.27;8.10;;;10.10;52.10;;;8.95;43.69;100569.09;4982741;28;20042;-88
2022/03/12 05:05:39;;;;;;;14.80;8.43;;;10.20;52.40;;;8.92;43.43;100571.31;4993165;28;20555;-88
2022/03/12 05:08:09;;;;;;;14.85;8.40;;;10.20;53.00;;;8.95;43.92;100571.81;4992413;28;20053;-88
2022/03/12 05:10:36;;;;;;;12.98;7.85;;;10.20;52.90;;;8.97;43.70;100569.78;4983539;28;20066;-88
2022/03/12 05:13:04;;;;;;;13.95;8.30;;;10.20;53.20;;;8.96;44.14;100576.19;4992905;28;20070;-89
2022/03/12 05:15:37;;;;;;;17.77;8.23;;;10.20;53.70;;;8.95;44.31;100571.81;4992914;28;20507;-88
2022/03/12 05:18:07;;;;;;;15.75;8.15;;;10.10;53.60;;;8.94;44.11;100572.81;4992872;28;20104;-88
2022/03/12 05:20:37;;;;;;;15.35;8.55;;;10.10;53.70;;;8.93;44.53;100579.28;4978249;28;20042;-89
2022/03/12 05:23:07;;;;;;;15.00;8.32;;;10.10;54.10;;;8.95;44.78;100584.53;4978205;28;20078;-88
2022/03/12 05:25:35;;;;;;;14.07;8.10;;;10.10;53.90;;;8.96;44.62;100581.63;5020641;23;20136;-81
2022/03/12 05:28:03;;;;;;;17.63;8.18;;;10.10;54.20;;;8.95;44.95;100579.94;5018844;28;20296;-81
2022/03/12 05:30:31;;;;;;;13.95;8.55;;;10.10;54.40;;;8.92;45.17;100588.44;5031300;28;20411;-82
2022/03/12 05:32:59;;;;;;;12.80;8.38;;;10.10;54.60;;;8.91;44.81;100597.59;5024873;28;20046;-82
2022/03/12 05:35:27;;;;;;;15.75;8.40;;;10.10;54.80;;;8.87;45.56;100596.25;5023308;28;20061;-82
2022/03/12 05:37:54;;;;;;;14.85;8.07;;;10.00;55.10;;;8.84;45.43;100590.31;5023345;28;20125;-82
2022/03/12 05:40:26;;;;;;;15.55;7.82;;;10.00;54.90;;;8.79;45.47;100590.81;5031705;28;20053;-81
2022/03/12 05:43:00;;;;;;;13.88;8.07;;;10.00;55.50;;;8.76;46.12;100593.91;5030841;28;20088;-81
2022/03/12 05:45:28;;;;;;;16.58;7.97;;;9.90;55.60;;;8.72;45.81;100587.09;5022734;28;20581;-80
2022/03/12 05:47:55;;;;;;;15.73;7.93;;;9.90;55.70;;;8.70;45.93;100595.44;5026045;28;20041;-80
2022/03/12 05:50:23;;;;;;;15.15;8.70;;;9.90;55.60;;;8.59;45.77;100596.59;5031443;28;20064;-80
2022/03/12 05:52:50;;;;;;;14.85;8.45;;;9.80;55.40;;;8.60;45.92;100600.16;5031167;28;20045;-79
2022/03/12 05:55:20;;;;;;;15.60;8.52;;;9.80;55.80;;;8.54;46.64;100607.09;5031785;28;20107;-79
2022/03/12 05:57:50;;;;;;;14.80;7.95;;;9.80;56.00;;;8.52;46.91;100601.00;5028675;28;20042;-79
2022/03/12 06:00:18;;;;;;;13.18;8.45;;;9.90;56.20;;;8.52;46.51;100597.44;5031738;28;20128;-79
2022/03/12 06:02:50;;;;;;;15.45;8.00;;;9.80;56.50;;;8.53;46.87;100597.28;5026075;28;20054;-79
2022/03/12 06:05:24;;;;;;;13.75;7.72;;;9.70;56.80;;;8.54;46.89;100607.09;5012065;28;20042;-79
2022/03/12 06:07:52;;;;;;;22.02;8.40;;;9.70;56.90;;;8.53;47.13;100613.56;5017094;28;20065;-80
2022/03/12 06:10:23;;;;;;;11.90;7.68;;;9.70;57.00;;;8.52;47.35;100611.84;4993887;28;20052;-80
2022/03/12 06:12:53;;;;;;;14.40;8.83;;;9.70;57.10;;;8.50;47.90;100611.19;5013025;28;20462;-80
2022/03/12 06:15:24;;;;;;;14.75;8.02;;;9.70;57.60;;;8.48;47.56;100612.38;5000806;28;20292;-80
2022/03/12 06:17:52;;;;;;;13.43;8.63;;;9.70;57.70;;;8.48;47.91;100612.38;5018042;28;20120;-79
2022/03/12 06:20:21;;;;;;;16.58;8.85;;;9.70;57.80;;;8.45;48.45;100613.53;5031220;28;20606;-80
2022/03/12 06:22:50;;;;;;;13.20;7.80;;;9.70;58.60;;;8.47;48.71;100611.50;5018220;28;20038;-81
2022/03/12 06:25:18;;;;;;;14.90;8.30;;;9.70;59.10;;;8.49;48.41;100619.47;4994536;28;20119;-81
2022/03/12 06:27:53;;;;;;;16.95;8.18;;;9.70;59.60;;;8.50;48.72;100613.88;5029127;28;20053;-81
2022/03/12 06:30:24;;;;;;;13.55;8.23;;;9.70;60.00;;;8.54;49.45;100623.38;5031275;28;20069;-81
2022/03/12 06:32:52;;;;;;;17.20;9.00;;;9.70;60.60;;;8.55;49.47;100621.53;5027612;28;20100;-82
2022/03/12 06:35:20;;;;;;;14.93;8.20;;;9.70;60.80;;;8.56;50.54;100615.91;5011811;28;20717;-82
2022/03/12 06:37:47;;;;;;;15.20;8.02;;;9.70;61.40;;;8.58;50.94;100618.47;5029540;28;20069;-82
2022/03/12 06:40:18;;;;;;;18.90;8.35;;;9.70;61.40;;;8.62;50.33;100625.25;5030499;28;20041;-82
2022/03/12 06:42:47;;;;;;;14.48;7.88;;;9.80;61.50;;;8.70;50.74;100621.69;5028564;28;20136;-82
2022/03/12 06:45:16;;;;;;;12.75;8.07;;;9.80;61.60;;;8.76;50.75;100615.59;5030861;28;20041;-82
2022/03/12 06:47:46;;;;;;;14.95;8.80;;;9.80;62.10;;;8.83;50.66;100623.91;5023918;28;20043;-82
2022/03/12 06:50:17;;;;;;;14.30;8.15;;;9.80;62.20;;;8.86;50.87;100632.53;5030466;28;20041;-81
2022/03/12 06:52:48;;;;;;;14.18;8.75;;;9.90;62.50;;;8.92;51.24;100631.84;5012524;28;20118;-81
2022/03/12 06:55:16;;;;;;;16.23;8.43;;;9.90;62.70;;;8.98;51.31;100631.16;5030777;28;20495;-86
2022/03/12 06:57:44;;;;;;;12.80;8.10;;;10.00;62.50;;;9.07;50.63;100628.47;5010987;28;20805;-85
2022/03/12 07:00:17;;;;;;;13.00;8.02;;;10.00;63.10;;;9.13;51.36;100634.03;5012403;28;20145;-85
2022/03/12 07:02:46;;;;;;;13.63;8.13;;;10.10;63.70;;;9.17;51.94;100635.38;5017809;28;20050;-85
2022/03/12 07:05:14;;;;;;;14.77;8.50;;;10.20;63.80;;;9.23;51.48;100631.13;5024888;28;20038;-85
2022/03/12 07:07:41;;;;;;;12.27;8.18;;;10.20;63.80;;;9.26;52.03;100629.94;5029896;28;20045;-85
2022/03/12 07:10:11;;;;;;;13.80;8.38;;;10.50;63.80;;;9.31;52.41;100631.13;5030652;28;20299;-83
2022/03/12 07:12:42;;;;;;;12.93;8.30;;;10.30;64.10;;;9.34;53.20;100628.03;5009197;28;20049;-82
2022/03/12 07:15:10;;;;;;;16.05;8.60;;;10.40;64.60;;;9.37;52.90;100635.84;5023439;28;20041;-84
2022/03/12 07:17:48;;;;;;;;;;;;;;;;;;;;;
2022/03/12 07:20:22;;;;;;;13.60;8.40;;;10.40;65.00;;;9.46;55.41;100638.53;5010890;28;20561;-86
2022/03/12 07:22:51;;;;;;;;;;;10.50;66.20;;;9.50;54.03;100634.44;5029944;28;21044;-83
2022/03/12 07:25:19;;;;;;;15.52;7.70;;;10.50;66.60;;;9.58;54.24;100637.16;5029196;28;19921;-84
2022/03/12 07:27:46;;;;;;;12.75;7.60;;;10.60;66.40;;;9.59;54.82;100628.84;5012161;28;20140;-84
2022/03/12 07:30:16;;;;;;;14.52;7.55;;;10.70;66.70;;;9.63;55.18;100637.47;5019051;28;20044;-83
2022/03/12 07:32:45;;;;;;;14.45;7.38;;;10.70;66.80;;;9.70;55.61;100640.34;5028117;28;20456;-85
2022/03/12 07:35:15;;;;;;;14.73;7.25;;;10.70;67.20;;;9.74;56.01;100644.41;5025513;28;20114;-83
2022/03/12 07:37:46;;;;;;;17.27;7.22;;;10.80;67.10;;;9.75;55.21;100638.78;5023501;28;20050;-86
2022/03/12 07:40:16;;;;;;;14.95;9.27;;;10.80;67.50;;;9.82;55.70;100643.50;4992500;28;20435;-85
2022/03/12 07:42:44;;;;;;;13.18;7.95;;;10.80;67.80;;;9.87;55.87;100643.84;4996494;28;20571;-82
2022/03/12 07:45:16;;;;;;;12.60;7.72;;;10.90;67.90;;;9.92;56.17;100625.13;5026510;28;20037;-84
2022/03/12 07:47:44;;;;;;;16.25;8.43;;;11.00;68.20;;;10.05;56.88;100624.53;5025024;28;20046;-83
2022/03/12 07:50:15;;;;;;;13.05;8.00;;;11.00;68.30;;;10.15;57.00;100634.16;4998784;28;20053;-84
2022/03/12 07:52:44;;;;;;;14.10;7.93;;;11.10;68.50;;;10.20;56.05;100627.34;5011661;28;20125;-84
2022/03/12 07:55:12;;;;;;;13.90;7.90;;;11.20;68.20;;;10.39;56.40;100639.66;5027440;28;20559;-83
2022/03/12 07:57:42;;;;;;;13.27;7.28;;;11.20;68.30;;;10.53;56.08;100642.47;5027857;28;20068;-83
2022/03/12 08:00:13;;;;;;;12.13;7.93;;;11.40;68.10;;;10.67;57.03;100634.53;5017099;28;20041;-84
2022/03/12 08:02:47;;;;;;;13.50;7.90;;;11.40;68.10;;;10.81;56.25;100639.16;5029559;28;20824;-83
2022/03/12 08:05:17;;;;;;;14.10;8.20;;;11.50;67.90;;;10.92;56.61;100641.44;5021161;28;20129;-83
2022/03/12 08:07:46;;;;;;;12.40;8.00;;;11.60;68.40;;;10.96;56.26;100648.22;5027283;28;20522;-81
2022/03/12 08:10:13;;;;;;;12.40;7.53;;;11.70;67.70;;;11.02;56.31;100645.78;5028602;28;20125;-81
2022/03/12 08:12:41;;;;;;;13.73;8.10;;;11.80;68.00;;;11.08;57.02;100645.03;5026891;28;20146;-83
2022/03/12 08:15:12;;;;;;;10.57;7.63;;;11.90;68.20;;;11.12;57.27;100654.56;5011040;28;20045;-83
2022/03/12 08:17:44;;;;;;;15.38;8.20;;;12.00;68.90;;;11.14;57.88;100656.06;4995442;28;20053;-84
2022/03/12 08:20:12;;;;;;;12.15;7.30;;;12.00;68.80;;;11.18;57.32;100662.00;5017088;28;20127;-85
2022/03/12 08:22:41;;;;;;;13.25;7.88;;;12.10;68.80;;;11.21;57.30;100663.50;5011049;28;20503;-85
2022/03/12 08:25:13;;;;;;;11.88;7.28;;;12.10;68.80;;;11.25;57.91;100668.41;4999189;28;20077;-86
2022/03/12 08:27:41;;;;;;;10.07;6.78;;;12.20;69.40;;;11.32;58.10;100677.50;5024449;28;20571;-87
2022/03/12 08:30:12;;;;;;;12.93;7.70;;;12.20;69.40;;;11.37;59.02;100687.03;5007518;28;20052;-90
2022/03/12 08:32:42;;;;;;;13.85;7.40;;;12.30;69.40;;;11.39;59.16;100699.41;5006054;28;20095;-89
2022/03/12 08:35:12;;;;;;;13.13;7.57;;;12.40;69.10;;;11.44;58.59;100693.41;5008390;28;20037;-87
2022/03/12 08:37:40;;;;;;;12.10;7.32;;;12.40;69.20;;;11.48;58.53;100703.75;5022587;28;20041;-87
2022/03/12 08:40:14;;;;;;;12.70;6.82;;;12.50;69.10;;;11.49;58.78;100699.16;5010687;28;20048;-88
2022/03/12 08:42:42;;;;;;;12.77;7.35;;;12.50;69.30;;;11.50;58.99;100700.84;5027700;28;20125;-85
2022/03/12 08:45:11;;;;;;;12.93;7.85;;;12.50;69.10;;;11.50;59.14;100709.88;5007333;28;20053;-88
2022/03/12 08:47:39;;;;;;;11.52;7.22;;;12.60;68.90;;;11.46;59.60;100703.09;5017796;28;20591;-86
2022/03/12 08:50:08;;;;;;;12.85;7.03;;;12.60;69.00;;;11.48;59.89;100711.94;5027784;28;20045;-85
2022/03/12 08:52:35;;;;;;;12.13;7.55;;;12.60;69.60;;;11.52;59.40;100718.72;5010973;28;20049;-86
2022/03/12 08:55:03;;;;;;;17.20;7.65;;;12.60;69.50;;;11.55;59.61;100710.13;5014340;28;20055;-84
2022/03/12 08:57:31;;;;;;;12.45;7.95;;;12.60;69.40;;;11.60;60.75;100711.47;5024800;28;20044;-81
2022/03/12 08:59:59;;;;;;;14.57;8.38;;;12.60;70.30;;;11.63;60.12;100709.22;5026556;28;20042;-78
2022/03/12 09:02:28;;;;;;;11.68;6.80;;;12.70;70.10;;;11.65;60.52;100726.25;5026285;28;20049;-80
2022/03/12 09:04:55;;;;;;;15.13;7.28;;;12.60;70.10;;;11.68;60.49;100719.56;5027910;28;20073;-80
2022/03/12 09:07:24;;;;;;;17.88;7.32;;;12.70;70.40;;;11.69;60.67;100730.28;5025441;28;20045;-80
2022/03/12 09:09:51;;;;;;;17.05;7.32;;;12.70;70.60;;;11.67;61.77;100713.28;5009031;28;20049;-80
2022/03/12 09:12:18;;;;;;;12.63;7.18;;;12.70;70.90;;;11.74;61.51;100721.53;5009091;28;20504;-80
2022/03/12 09:14:47;;;;;;;11.07;7.13;;;12.80;71.40;;;11.82;61.98;100726.91;5026346;28;20045;-80
2022/03/12 09:17:14;;;;;;;11.63;7.05;;;12.80;71.10;;;11.90;61.81;100728.75;5015710;28;20045;-80
2022/03/12 09:19:43;;;;;;;11.68;7.60;;;12.90;71.70;;;12.00;62.60;100726.56;5025221;28;20041;-80
2022/03/12 09:22:10;;;;;;;11.10;7.40;;;13.00;72.70;;;12.09;62.29;100719.97;5021481;28;20116;-80
2022/03/12 09:24:40;;;;;;;11.63;7.65;;;13.10;71.80;;;12.17;61.98;100731.81;5016777;28;20050;-80
2022/03/12 09:27:08;;;;;;;12.05;7.65;;;13.10;71.70;;;12.21;62.48;100738.59;5017186;28;20041;-80
2022/03/12 09:29:36;;;;;;;10.88;7.30;;;13.20;71.70;;;12.18;61.80;100739.81;5018799;28;20037;-80
2022/03/12 09:32:08;;;;;;;12.50;6.95;;;13.10;71.30;;;12.18;62.08;100733.50;5025711;28;20042;-83
2022/03/12 09:34:35;;;;;;;13.15;7.78;;;13.20;71.80;;;12.20;62.48;100736.88;5017919;28;20124;-80
2022/03/12 09:37:04;;;;;;;12.57;8.07;;;13.20;71.80;;;12.24;62.30;100740.94;5017402;28;20135;-81
2022/03/12 09:39:34;;;;;;;13.25;7.28;;;13.30;71.90;;;12.27;62.49;100735.09;5009434;28;20041;-80
2022/03/12 09:42:02;;;;;;;11.15;7.45;;;13.30;71.30;;;12.32;62.18;100738.09;5003634;28;20056;-80
2022/03/12 09:44:30;;;;;;;14.02;7.60;;;13.40;71.50;;;12.31;61.56;100744.59;5013209;28;20077;-80
2022/03/12 09:46:57;;;;;;;12.50;7.68;;;13.40;70.60;;;12.31;61.76;100758.22;5028848;28;20053;-80
2022/03/12 09:49:26;;;;;;;11.57;6.97;;;13.40;70.80;;;12.28;61.69;100756.75;5028188;28;20034;-80
2022/03/12 09:51:54;;;;;;;17.73;8.02;;;13.40;70.60;;;12.26;61.71;100758.81;5025901;28;20042;-80
2022/03/12 09:54:22;;;;;;;12.30;7.38;;;13.40;70.60;;;12.26;61.81;100747.03;5027049;28;20120;-81
2022/03/12 09:56:49;;;;;;;13.82;7.63;;;13.40;70.70;;;12.29;61.61;100760.31;5028710;28;20045;-80
2022/03/12 09:59:17;;;;;;;15.45;7.90;;;13.40;71.20;;;12.33;61.49;100759.72;5029372;28;20137;-80
2022/03/12 10:01:44;;;;;;;11.80;7.47;;;13.40;70.80;;;12.39;61.84;100758.13;5030726;28;20496;-80
2022/03/12 10:04:11;;;;;;;12.95;8.02;;;13.40;71.30;;;12.43;62.25;100762.19;5028902;28;20117;-80
2022/03/12 10:06:40;;;;;;;9.85;6.97;;;13.50;71.00;;;12.44;61.71;100760.28;5030126;28;20045;-80
2022/03/12 10:09:07;;;;;;;10.93;7.22;;;13.50;70.90;;;12.40;61.51;100759.00;5026654;28;20049;-80
2022/03/12 10:11:35;;;;;;;11.90;7.25;;;13.40;70.40;;;12.38;61.80;100758.34;5029924;28;20037;-80
2022/03/12 10:14:02;;;;;;;13.82;8.18;;;13.40;70.70;;;12.37;61.48;100760.19;5027752;28;20052;-80
2022/03/12 10:16:30;;;;;;;11.77;7.28;;;13.30;71.10;;;12.38;61.97;100764.63;5023252;28;20041;-80
2022/03/12 10:18:59;;;;;;;11.52;6.88;;;13.40;71.00;;;12.40;61.54;100770.75;5027319;28;20049;-80
2022/03/12 10:21:27;;;;;;;15.85;6.90;;;13.40;71.00;;;12.47;61.71;100765.34;5027606;28;20042;-81